Time;durP1;ratioP1;P1;durP2;ratioP2;P2;SDS_P1;SDS_P2;PMS_P1;PMS_P2;Temp;Humidity;BMP_temperature;BMP_pressure;BME280_temperature;BME280_humidity;BME280_pressure;Samples;Min_cycle;Max_cycle;Signal;HPM_P1;HPM_P2
2022/09/03 00:01:38;;;;;;;0.60;0.50;;;;;;;24.00;43.00;101210.66;5007432;28;20030;-40
2022/09/03 00:04:16;;;;;;;1.08;0.95;;;;;;;23.97;42.82;101208.31;5061046;28;20087;-41
2022/09/03 00:06:47;;;;;;;0.80;0.68;;;;;;;24.00;42.95;101205.22;5061968;28;20028;-41
2022/09/03 00:09:14;;;;;;;0.57;0.50;;;;;;;24.00;42.92;101207.06;5062241;28;20089;-40
2022/09/03 00:12:05;;;;;;;0.95;0.60;;;;;;;24.00;42.90;101197.06;5057889;28;20376;-39
2022/09/03 00:14:37;;;;;;;0.70;0.50;;;;;;;23.98;42.95;101207.25;5054330;28;20035;-41
2022/09/03 00:17:13;;;;;;;0.40;0.35;;;;;;;23.98;42.76;101207.25;5046297;28;20017;-38
2022/09/03 00:19:44;;;;;;;0.98;0.52;;;;;;;23.97;42.93;101202.03;5055366;28;20024;-40
2022/09/03 00:22:18;;;;;;;1.23;0.63;;;;;;;23.97;42.97;101204.75;5056555;28;20037;-42
2022/09/03 00:24:44;;;;;;;0.65;0.50;;;;;;;23.95;42.97;101208.47;5060961;28;20056;-43
2022/09/03 00:27:22;;;;;;;0.70;0.50;;;;;;;23.96;42.93;101201.22;5063016;28;20021;-42
2022/09/03 00:30:11;;;;;;;0.68;0.50;;;;;;;23.95;42.91;101211.19;5048792;28;20383;-40
2022/09/03 00:32:53;;;;;;;1.15;0.52;;;;;;;23.94;42.88;101204.09;5045834;28;20035;-40
2022/09/03 00:35:24;;;;;;;0.65;0.52;;;;;;;23.93;42.84;101210.56;5048891;28;20026;-39
2022/09/03 00:37:52;;;;;;;0.95;0.50;;;;;;;23.92;42.91;101208.91;5059715;28;20036;-40
2022/09/03 00:40:55;;;;;;;1.00;0.85;;;;;;;23.93;42.91;101201.59;5062126;28;20088;-39
2022/09/03 00:43:59;;;;;;;0.55;0.47;;;;;;;23.91;43.12;101199.03;5049419;28;20089;-41
2022/09/03 00:46:31;;;;;;;0.55;0.55;;;;;;;23.90;42.80;101201.97;5053495;28;20041;-39
2022/09/03 00:49:25;;;;;;;1.13;0.60;;;;;;;23.90;42.74;101201.97;5054042;28;20029;-40
2022/09/03 00:52:29;;;;;;;0.63;0.38;;;;;;;23.89;43.13;101198.41;5052139;28;20017;-40
2022/09/03 00:55:04;;;;;;;0.70;0.50;;;;;;;23.88;42.99;101201.34;5059957;28;20509;-40
2022/09/03 00:57:38;;;;;;;0.60;0.60;;;;;;;23.86;43.03;101196.06;5058463;28;20149;-40
2022/09/03 01:00:12;;;;;;;0.60;0.50;;;;;;;23.87;42.83;101196.91;5050648;28;20024;-41
2022/09/03 01:02:50;;;;;;;1.17;0.82;;;;;;;23.86;42.92;101200.69;5063566;28;20460;-40
2022/09/03 01:05:20;;;;;;;0.93;0.50;;;;;;;23.85;42.97;101197.13;5059184;28;20027;-41
2022/09/03 01:08:11;;;;;;;0.63;0.40;;;;;;;23.86;43.16;101203.38;5064339;28;20028;-39
2022/09/03 01:10:45;;;;;;;0.45;0.40;;;;;;;23.86;43.02;101206.09;5065515;28;20025;-41
2022/09/03 01:13:17;;;;;;;0.80;0.45;;;;;;;23.84;42.90;101202.75;5065558;28;20024;-40
2022/09/03 01:16:00;;;;;;;0.60;0.47;;;;;;;23.84;43.08;101200.03;5055776;28;20493;-40
2022/09/03 01:18:44;;;;;;;0.40;0.40;;;;;;;23.83;43.08;101198.34;5062144;28;20040;-40
2022/09/03 01:21:27;;;;;;;0.30;0.30;;;;;;;23.81;42.92;101201.25;5065553;28;20024;-43
2022/09/03 01:24:43;;;;;;;1.48;0.47;;;;;;;23.81;43.06;101201.25;5064718;28;20025;-44
2022/09/03 01:27:14;;;;;;;0.65;0.47;;;;;;;23.80;43.05;101196.88;5023258;28;20026;-42
2022/09/03 01:29:42;;;;;;;0.73;0.50;;;;;;;23.79;43.06;101195.19;5022897;28;20033;-42
2022/09/03 01:32:45;;;;;;;0.43;0.40;;;;;;;23.80;42.97;101202.31;5022923;28;20022;-39
2022/09/03 01:35:34;;;;;;;0.98;0.50;;;;;;;23.79;42.93;101200.63;5022717;28;20034;-39
2022/09/03 01:38:24;;;;;;;0.57;0.43;;;;;;;23.78;43.16;101207.06;5022308;28;20030;-39
2022/09/03 01:42:12;;;;;;;0.90;0.70;;;;;;;23.76;42.93;101203.72;5021801;28;20048;-39
2022/09/03 01:44:16;;;;;;;0.75;0.52;;;;;;;23.78;42.95;101206.22;5007793;28;20037;-41
2022/09/03 01:46:45;;;;;;;0.68;0.65;;;;;;;23.75;42.85;101204.75;5012333;28;20065;-44
2022/09/03 01:49:10;;;;;;;0.85;0.50;;;;;;;23.75;43.12;101204.75;5021669;28;20053;-42
2022/09/03 01:51:36;;;;;;;0.47;0.47;;;;;;;23.75;42.73;101203.94;5022707;28;20026;-44
2022/09/03 01:54:18;;;;;;;0.60;0.50;;;;;;;23.73;42.83;101203.25;5021796;28;20033;-39
2022/09/03 01:56:58;;;;;;;0.40;0.40;;;;;;;23.74;42.47;101204.94;5010028;28;20026;-39
2022/09/03 02:00:03;;;;;;;0.70;0.50;;;;;;;23.75;42.82;101209.34;5021992;28;20132;-41
2022/09/03 02:02:29;;;;;;;0.40;0.38;;;;;;;23.72;42.97;101204.31;5053026;28;20072;-40
2022/09/03 02:05:22;;;;;;;0.75;0.50;;;;;;;23.73;43.01;101205.97;5063588;28;20021;-41
2022/09/03 02:07:56;;;;;;;1.13;0.65;;;;;;;23.72;42.83;101207.03;5047948;28;20078;-40
2022/09/03 02:10:30;;;;;;;0.75;0.50;;;;;;;23.71;42.87;101214.31;5057888;28;20033;-44
2022/09/03 02:13:04;;;;;;;0.40;0.40;;;;;;;23.71;42.78;101211.63;5057372;28;20059;-42
2022/09/03 02:15:31;;;;;;;1.48;0.40;;;;;;;23.69;42.80;101210.94;5052119;28;20021;-44
2022/09/03 02:17:58;;;;;;;0.40;0.30;;;;;;;23.69;42.78;101217.22;5049345;28;20121;-41
2022/09/03 02:20:26;;;;;;;0.60;0.50;;;;;;;23.68;42.95;101206.56;5062818;28;20025;-41
2022/09/03 02:22:53;;;;;;;0.77;0.52;;;;;;;23.67;42.76;101213.03;5064210;28;20044;-40
2022/09/03 02:25:18;;;;;;;0.80;0.50;;;;;;;23.67;42.95;101204.88;5058957;28;20022;-41
2022/09/03 02:27:44;;;;;;;0.93;0.57;;;;;;;23.66;42.83;101209.47;5054318;28;20044;-41
2022/09/03 02:30:10;;;;;;;0.57;0.45;;;;;;;23.66;42.82;101205.91;5048872;28;20033;-42
2022/09/03 02:32:35;;;;;;;0.50;0.50;;;;;;;23.62;42.70;101197.28;5063862;28;20059;-41
2022/09/03 02:35:01;;;;;;;0.60;0.50;;;;;;;23.64;42.90;101200.63;5064038;28;20055;-42
2022/09/03 02:37:26;;;;;;;0.77;0.40;;;;;;;23.56;42.78;101183.63;5053068;28;20017;-44
2022/09/03 02:39:51;;;;;;;0.60;0.50;;;;;;;23.63;42.88;101196.25;5051933;28;20053;-40
2022/09/03 02:42:17;;;;;;;1.52;0.50;;;;;;;23.59;42.80;101189.53;5058083;28;20387;-41
2022/09/03 02:44:53;;;;;;;0.85;0.57;;;;;;;23.63;42.99;101198.13;5043723;28;20083;-45
2022/09/03 02:47:19;;;;;;;0.47;0.45;;;;;;;23.60;42.68;101199.34;5058693;28;20032;-39
2022/09/03 02:49:47;;;;;;;0.75;0.50;;;;;;;23.60;42.88;101196.63;5055288;28;20029;-40
2022/09/03 02:52:12;;;;;;;0.60;0.55;;;;;;;23.60;42.81;101193.06;5058284;28;20037;-42
2022/09/03 02:54:38;;;;;;;1.20;0.70;;;;;;;23.54;42.83;101178.41;5057205;28;20022;-39
2022/09/03 02:57:06;;;;;;;0.43;0.40;;;;;;;23.59;42.73;101194.94;5055251;28;20051;-40
2022/09/03 02:59:31;;;;;;;0.50;0.45;;;;;;;23.59;42.73;101194.13;5063435;28;20033;-40
2022/09/03 03:01:56;;;;;;;0.90;0.40;;;;;;;23.57;42.71;101190.75;5063927;28;20021;-39
2022/09/03 03:04:22;;;;;;;0.45;0.30;;;;;;;23.57;42.90;101191.56;5062529;28;20032;-40
2022/09/03 03:06:49;;;;;;;1.27;0.50;;;;;;;23.56;42.99;101191.78;5063937;28;20081;-41
2022/09/03 03:09:15;;;;;;;0.55;0.52;;;;;;;23.56;42.96;101191.78;5062955;28;20021;-44
2022/09/03 03:11:40;;;;;;;0.40;0.40;;;;;;;23.55;42.64;101193.66;5063646;28;20119;-40
2022/09/03 03:14:06;;;;;;;0.43;0.40;;;;;;;23.54;42.99;101189.28;5061842;28;20618;-40
2022/09/03 03:16:31;;;;;;;0.55;0.40;;;;;;;23.54;42.79;101183.84;5049699;28;20032;-41
2022/09/03 03:18:56;;;;;;;0.82;0.50;;;;;;;23.53;42.92;101186.72;5051985;28;20055;-40
2022/09/03 03:21:22;;;;;;;0.50;0.40;;;;;;;23.52;42.64;101188.59;5057845;28;20085;-40
2022/09/03 03:23:47;;;;;;;1.02;0.60;;;;;;;23.52;42.77;101179.63;5051649;28;20024;-39
2022/09/03 03:26:17;;;;;;;0.63;0.50;;;;;;;23.45;42.67;101177.69;5049243;28;20036;-40
2022/09/03 03:28:42;;;;;;;0.60;0.50;;;;;;;23.51;42.66;101183.38;5055119;28;20037;-41
2022/09/03 03:31:10;;;;;;;1.20;0.40;;;;;;;23.51;42.81;101180.66;5056560;28;20032;-41
2022/09/03 03:33:36;;;;;;;0.40;0.40;;;;;;;23.49;42.83;101180.88;5050401;28;20043;-40
2022/09/03 03:36:10;;;;;;;0.50;0.50;;;;;;;23.49;42.54;101180.88;5062851;28;20096;-40
2022/09/03 03:38:36;;;;;;;0.57;0.40;;;;;;;23.48;42.82;101181.88;5058797;28;20029;-40
2022/09/03 03:41:17;;;;;;;0.50;0.50;;;;;;;23.49;42.82;101183.59;5053246;28;20025;-41
2022/09/03 03:43:43;;;;;;;0.50;0.50;;;;;;;23.47;42.59;101182.09;5048117;28;20032;-41
2022/09/03 03:46:09;;;;;;;0.57;0.43;;;;;;;23.47;42.73;101184.78;5049724;28;20028;-39
2022/09/03 03:48:35;;;;;;;0.60;0.50;;;;;;;23.44;42.80;101186.84;5048681;28;20021;-43
2022/09/03 03:51:03;;;;;;;0.68;0.50;;;;;;;23.45;42.44;101190.44;5055799;28;20081;-41
2022/09/03 03:53:33;;;;;;;0.45;0.45;;;;;;;23.45;42.73;101187.72;5054149;28;20028;-39
2022/09/03 03:56:00;;;;;;;0.40;0.40;;;;;;;23.42;42.64;101179.94;5048702;28;20044;-39
2022/09/03 03:58:27;;;;;;;0.70;0.50;;;;;;;23.42;42.60;101178.06;5052975;28;20104;-39
2022/09/03 04:00:53;;;;;;;0.50;0.40;;;;;;;23.39;42.69;101177.59;5059124;28;20024;-40
2022/09/03 04:03:19;;;;;;;0.75;0.30;;;;;;;23.40;42.65;101185.53;5061987;28;20117;-42
2022/09/03 04:05:55;;;;;;;0.43;0.40;;;;;;;23.42;42.57;101188.09;5063093;28;20041;-40
2022/09/03 04:08:20;;;;;;;0.55;0.50;;;;;;;23.40;42.76;101185.53;5050270;28;20049;-43
2022/09/03 04:10:46;;;;;;;0.85;0.40;;;;;;;23.39;42.55;101189.31;5058433;28;20075;-39
2022/09/03 04:13:11;;;;;;;0.50;0.38;;;;;;;23.38;42.78;101182.19;5048742;28;20025;-40
2022/09/03 04:15:36;;;;;;;0.50;0.40;;;;;;;23.37;42.55;101194.09;5062804;28;20021;-41
2022/09/03 04:18:01;;;;;;;0.47;0.38;;;;;;;23.35;42.72;101181.75;5062238;28;20025;-39
2022/09/03 04:20:26;;;;;;;0.65;0.45;;;;;;;23.34;42.87;101185.50;5062840;28;20027;-42
2022/09/03 04:22:52;;;;;;;0.40;0.30;;;;;;;23.35;42.61;101188.00;5048780;28;20056;-43
2022/09/03 04:25:17;;;;;;;0.80;0.57;;;;;;;23.30;42.49;101174.19;5062484;28;20027;-41
2022/09/03 04:27:43;;;;;;;0.65;0.50;;;;;;;23.32;42.61;101185.69;5065414;28;20064;-42
2022/09/03 04:30:08;;;;;;;1.02;0.47;;;;;;;23.33;42.84;101186.53;5051270;28;20028;-40
2022/09/03 04:32:52;;;;;;;0.68;0.47;;;;;;;23.32;42.63;101182.13;5064607;28;20021;-41
2022/09/03 04:35:18;;;;;;;1.10;0.57;;;;;;;23.32;42.88;101182.97;5065920;28;20100;-46
2022/09/03 04:37:43;;;;;;;0.40;0.40;;;;;;;23.30;43.07;101182.31;5053759;28;20517;-41
2022/09/03 04:40:09;;;;;;;0.90;0.60;;;;;;;23.30;42.69;101173.34;5059817;28;20551;-41
2022/09/03 04:42:34;;;;;;;0.70;0.50;;;;;;;23.31;42.81;101183.16;5055464;28;20076;-40
2022/09/03 04:45:00;;;;;;;0.57;0.45;;;;;;;23.29;42.67;101183.34;5062247;28;20021;-44
2022/09/03 04:47:26;;;;;;;0.98;0.60;;;;;;;23.29;42.69;101177.94;5051864;28;20033;-42
2022/09/03 04:49:53;;;;;;;0.50;0.43;;;;;;;23.28;42.81;101167.25;5056698;28;20037;-44
2022/09/03 04:52:19;;;;;;;0.40;0.40;;;;;;;23.27;42.82;101176.44;5060504;28;20017;-43
2022/09/03 04:54:44;;;;;;;0.70;0.43;;;;;;;23.26;42.57;101167.44;5053114;28;20765;-40
2022/09/03 04:57:09;;;;;;;0.55;0.55;;;;;;;23.26;42.78;101177.47;5052696;28;20045;-41
2022/09/03 04:59:35;;;;;;;0.60;0.40;;;;;;;23.25;42.58;101178.50;5059805;28;20021;-40
2022/09/03 05:02:00;;;;;;;0.55;0.45;;;;;;;23.25;42.71;101175.78;5057339;28;20178;-41
2022/09/03 05:04:25;;;;;;;0.43;0.40;;;;;;;23.25;42.83;101170.38;5064412;28;20029;-40
2022/09/03 05:06:51;;;;;;;0.63;0.30;;;;;;;23.22;42.61;101176.16;5056658;28;20596;-40
2022/09/03 05:09:16;;;;;;;1.00;0.40;;;;;;;23.23;42.67;101180.56;5060983;28;20027;-39
2022/09/03 05:11:41;;;;;;;0.50;0.40;;;;;;;23.20;42.69;101182.63;5065181;28;20017;-39
2022/09/03 05:14:10;;;;;;;0.47;0.47;;;;;;;23.23;42.73;101184.09;5065165;28;20021;-40
2022/09/03 05:16:35;;;;;;;0.40;0.40;;;;;;;23.22;42.58;101178.88;5065407;28;20028;-40
2022/09/03 05:19:04;;;;;;;0.50;0.50;;;;;;;23.18;42.52;101164.84;5063051;28;20045;-40
2022/09/03 05:21:30;;;;;;;0.65;0.40;;;;;;;23.22;42.67;101187.00;5065328;28;20083;-40
2022/09/03 05:23:55;;;;;;;0.35;0.30;;;;;;;23.22;42.70;101176.16;5064696;28;20024;-39
2022/09/03 05:26:23;;;;;;;0.32;0.32;;;;;;;23.22;42.65;101178.88;5064622;28;20057;-40
2022/09/03 05:28:52;;;;;;;0.45;0.40;;;;;;;23.23;42.72;101180.56;5064364;28;20025;-42
2022/09/03 05:31:18;;;;;;;0.77;0.57;;;;;;;23.22;42.72;101178.88;5065004;28;20487;-40
2022/09/03 05:33:46;;;;;;;0.50;0.40;;;;;;;23.22;42.70;101178.88;5063710;28;20417;-42
2022/09/03 05:36:21;;;;;;;0.38;0.30;;;;;;;23.22;42.66;101178.88;5064681;28;20029;-40
2022/09/03 05:38:47;;;;;;;0.40;0.40;;;;;;;23.20;42.84;101182.63;5050445;28;20025;-41
2022/09/03 05:41:14;;;;;;;0.60;0.40;;;;;;;23.21;42.85;101172.63;5064527;28;20024;-43
2022/09/03 05:43:40;;;;;;;0.40;0.35;;;;;;;23.20;42.83;101184.50;5064393;28;20084;-41
2022/09/03 05:46:08;;;;;;;0.40;0.32;;;;;;;23.22;42.64;101181.59;5063714;28;20012;-40
2022/09/03 05:48:35;;;;;;;0.43;0.30;;;;;;;23.22;43.01;101178.88;5063590;28;20036;-39
2022/09/03 05:51:15;;;;;;;0.57;0.38;;;;;;;23.22;42.68;101179.72;5063342;28;20032;-41
2022/09/03 05:53:41;;;;;;;0.73;0.50;;;;;;;23.21;42.84;101178.03;5061923;28;20016;-41
2022/09/03 05:56:12;;;;;;;0.40;0.30;;;;;;;23.22;42.84;101173.44;5062869;28;20111;-40
2022/09/03 05:58:42;;;;;;;0.40;0.40;;;;;;;23.22;42.71;101170.75;5063877;28;20052;-42
2022/09/03 06:01:30;;;;;;;0.32;0.32;;;;;;;23.23;42.59;101177.84;5064306;28;20382;-41
2022/09/03 06:03:59;;;;;;;0.32;0.30;;;;;;;23.21;42.84;101178.03;5062683;28;20128;-41
2022/09/03 06:06:26;;;;;;;0.63;0.32;;;;;;;23.22;42.81;101173.44;5064286;28;20009;-43
2022/09/03 06:08:56;;;;;;;0.40;0.40;;;;;;;23.18;42.62;101176.53;5064157;28;20101;-39
2022/09/03 06:11:26;;;;;;;0.50;0.40;;;;;;;23.20;43.06;101179.91;5064059;28;20021;-41
2022/09/03 06:13:53;;;;;;;0.57;0.40;;;;;;;23.23;42.97;101181.38;5063589;28;20017;-42
2022/09/03 06:16:18;;;;;;;0.68;0.50;;;;;;;23.23;43.12;101186.81;5064227;28;20013;-39
2022/09/03 06:18:43;;;;;;;0.47;0.40;;;;;;;23.23;42.92;101181.38;5063271;28;20029;-39
2022/09/03 06:21:08;;;;;;;1.42;0.40;;;;;;;23.24;43.10;101184.97;5063798;28;20021;-40
2022/09/03 06:23:34;;;;;;;0.63;0.50;;;;;;;23.19;43.05;101175.53;5063711;28;20051;-42
2022/09/03 06:26:01;;;;;;;0.60;0.40;;;;;;;23.24;42.88;101179.53;5062345;28;20031;-39
2022/09/03 06:28:27;;;;;;;1.30;0.40;;;;;;;23.25;42.96;101182.06;5063404;28;20044;-41
2022/09/03 06:30:53;;;;;;;0.40;0.40;;;;;;;23.25;42.83;101182.06;5063850;28;20378;-43
2022/09/03 06:33:18;;;;;;;0.40;0.40;;;;;;;23.25;43.16;101190.19;5062578;28;20075;-40
2022/09/03 06:35:44;;;;;;;0.35;0.30;;;;;;;23.26;43.14;101185.59;5063677;28;20021;-40
2022/09/03 06:38:11;;;;;;;0.30;0.30;;;;;;;23.26;42.87;101183.72;5063267;28;20028;-38
2022/09/03 06:40:36;;;;;;;0.52;0.47;;;;;;;23.21;42.97;101169.91;5060666;28;20025;-40
2022/09/03 06:43:02;;;;;;;0.38;0.30;;;;;;;23.26;43.07;101178.31;5063030;28;20025;-40
2022/09/03 06:45:28;;;;;;;0.43;0.40;;;;;;;23.27;43.09;101176.44;5061893;28;20040;-46
2022/09/03 06:47:54;;;;;;;0.68;0.50;;;;;;;23.27;43.02;101182.69;5063111;28;20024;-49
2022/09/03 06:50:20;;;;;;;0.30;0.30;;;;;;;23.30;43.22;101184.19;5062958;28;20020;-45
2022/09/03 06:52:53;;;;;;;0.65;0.35;;;;;;;23.31;43.15;101180.44;5063172;28;20043;-42
2022/09/03 06:55:20;;;;;;;0.77;0.40;;;;;;;23.28;43.10;101169.97;5061865;28;20462;-40
2022/09/03 06:57:45;;;;;;;1.27;0.40;;;;;;;23.28;43.02;101168.13;5062922;28;20049;-40
2022/09/03 07:00:11;;;;;;;0.40;0.40;;;;;;;23.31;43.18;101180.44;5062623;28;20037;-39
2022/09/03 07:02:36;;;;;;;0.80;0.40;;;;;;;23.32;43.31;101184.81;5062691;28;20028;-38
2022/09/03 07:05:02;;;;;;;0.75;0.40;;;;;;;23.31;42.99;101186.69;5062878;28;20098;-38
2022/09/03 07:07:27;;;;;;;0.43;0.32;;;;;;;23.28;42.95;101183.53;5062169;28;20029;-40
2022/09/03 07:09:52;;;;;;;0.73;0.47;;;;;;;23.32;43.31;101185.69;5062093;28;20021;-40
2022/09/03 07:12:18;;;;;;;0.52;0.40;;;;;;;23.33;43.14;101184.66;5060271;28;20024;-39
2022/09/03 07:14:43;;;;;;;0.50;0.50;;;;;;;23.35;43.22;101179.03;5062822;28;20096;-40
2022/09/03 07:17:08;;;;;;;0.30;0.30;;;;;;;23.35;42.97;101190.72;5061723;28;20035;-39
2022/09/03 07:19:34;;;;;;;0.73;0.40;;;;;;;23.36;43.22;101195.13;5061584;28;20036;-39
2022/09/03 07:22:00;;;;;;;0.40;0.30;;;;;;;23.37;43.27;101182.41;5063196;28;20024;-39
2022/09/03 07:24:26;;;;;;;0.45;0.40;;;;;;;23.34;43.03;101174.63;5060951;28;20035;-39
2022/09/03 07:26:51;;;;;;;0.47;0.35;;;;;;;23.33;42.90;101175.69;5063107;28;20021;-39
2022/09/03 07:29:18;;;;;;;0.40;0.30;;;;;;;23.35;42.68;101179.84;5051216;28;20041;-41
2022/09/03 07:31:44;;;;;;;0.43;0.40;;;;;;;23.38;42.77;101182.19;5061788;28;20036;-41
2022/09/03 07:34:11;;;;;;;0.60;0.47;;;;;;;23.40;42.63;101184.72;5061620;28;20366;-41
2022/09/03 07:36:45;;;;;;;1.30;0.47;;;;;;;23.38;42.38;101182.19;5062480;28;20043;-43
2022/09/03 07:39:12;;;;;;;0.50;0.43;;;;;;;23.40;42.53;101184.72;5059578;28;20107;-42
2022/09/03 07:41:38;;;;;;;1.15;0.50;;;;;;;23.42;42.46;101182.66;5061409;28;20017;-40
2022/09/03 07:44:06;;;;;;;0.90;0.40;;;;;;;23.43;42.32;101187.06;5048331;28;20027;-43
2022/09/03 07:46:34;;;;;;;0.57;0.30;;;;;;;23.43;42.48;101185.16;5062565;28;20037;-41
2022/09/03 07:49:03;;;;;;;1.15;0.57;;;;;;;23.44;42.21;101176.00;5061082;28;20021;-42
2022/09/03 07:51:32;;;;;;;0.65;0.38;;;;;;;23.45;42.40;101183.13;5062806;28;20036;-42
2022/09/03 07:53:59;;;;;;;4.18;0.50;;;;;;;23.46;42.38;101181.25;5062110;28;20013;-45
2022/09/03 07:56:25;;;;;;;0.95;0.63;;;;;;;23.47;42.42;101182.91;5061892;28;20040;-40
2022/09/03 07:58:51;;;;;;;0.47;0.32;;;;;;;23.48;42.21;101184.59;5061840;28;20045;-45
2022/09/03 08:01:18;;;;;;;0.55;0.30;;;;;;;23.48;42.22;101181.03;5063180;28;20021;-42
2022/09/03 08:03:45;;;;;;;0.73;0.40;;;;;;;23.48;42.45;101184.59;5065971;28;20033;-41
2022/09/03 08:06:11;;;;;;;1.00;0.45;;;;;;;23.50;42.51;101177.13;5057009;28;20104;-44
2022/09/03 08:08:37;;;;;;;1.67;0.38;;;;;;;23.49;42.40;101182.72;5062548;28;20051;-44
2022/09/03 08:11:09;;;;;;;0.40;0.40;;;;;;;23.52;42.20;101179.63;5065480;28;20470;-43
2022/09/03 08:13:36;;;;;;;0.85;0.32;;;;;;;23.50;42.42;101179.84;5066524;28;20016;-41
2022/09/03 08:16:01;;;;;;;0.30;0.30;;;;;;;23.50;42.48;101181.72;5060992;28;20021;-41
2022/09/03 08:18:29;;;;;;;0.50;0.40;;;;;;;23.53;42.50;101186.72;5059776;28;20052;-42
2022/09/03 08:20:58;;;;;;;0.30;0.30;;;;;;;23.52;42.47;101182.34;5056673;28;20020;-43
2022/09/03 08:23:23;;;;;;;0.82;0.35;;;;;;;23.55;42.34;101187.41;5066321;28;20127;-41
2022/09/03 08:25:48;;;;;;;0.55;0.50;;;;;;;23.54;42.27;101185.72;5065754;28;20025;-41
2022/09/03 08:28:14;;;;;;;0.60;0.50;;;;;;;23.55;42.26;101187.41;5064728;28;20036;-43
2022/09/03 08:30:39;;;;;;;0.95;0.52;;;;;;;23.54;42.30;101188.44;5066409;28;20028;-39
2022/09/03 08:33:05;;;;;;;0.40;0.40;;;;;;;23.53;42.14;101182.13;5065545;28;20078;-44
2022/09/03 08:35:33;;;;;;;0.40;0.30;;;;;;;23.55;42.25;101185.50;5066383;28;20032;-44
2022/09/03 08:38:04;;;;;;;1.83;0.50;;;;;;;23.51;41.96;101175.25;5066190;28;20025;-43
2022/09/03 08:40:31;;;;;;;0.98;0.30;;;;;;;23.58;41.93;101177.00;5064591;28;20021;-42
2022/09/03 08:43:07;;;;;;;0.60;0.50;;;;;;;23.62;42.04;101178.28;5064557;28;20048;-44
2022/09/03 08:45:35;;;;;;;1.55;0.88;;;;;;;23.66;42.20;101179.63;5065006;28;20104;-42
2022/09/03 08:48:07;;;;;;;0.87;0.40;;;;;;;23.74;42.16;101185.94;5064033;28;20024;-44
2022/09/03 08:50:36;;;;;;;0.30;0.30;;;;;;;23.78;42.37;101181.78;5066077;28;20128;-45
2022/09/03 08:53:07;;;;;;;0.63;0.40;;;;;;;23.83;42.06;101180.19;5061629;28;20025;-40
2022/09/03 08:56:09;;;;;;;0.50;0.45;;;;;;;23.98;42.06;101188.25;5065356;28;20037;-44
2022/09/03 08:58:37;;;;;;;0.73;0.65;;;;;;;24.02;41.98;101181.41;5061287;28;20052;-42
2022/09/03 09:01:13;;;;;;;0.43;0.35;;;;;;;24.12;41.81;101181.06;5049728;28;20020;-43
2022/09/03 09:03:41;;;;;;;0.50;0.40;;;;;;;24.16;41.66;101179.63;5063230;28;20041;-41
2022/09/03 09:06:22;;;;;;;;;;;;;;;24.18;41.60;101183.84;5065067;28;20035;-42
2022/09/03 09:08:56;;;;;;;0.57;0.40;;;;;;;24.24;41.33;101179.47;5055389;28;19919;-43
2022/09/03 09:11:27;;;;;;;1.02;0.50;;;;;;;24.31;41.41;101184.97;5052715;28;20426;-41
2022/09/03 09:13:57;;;;;;;1.00;0.40;;;;;;;24.34;41.27;101184.56;5054354;28;20018;-43
2022/09/03 09:16:33;;;;;;;0.50;0.40;;;;;;;24.41;41.17;101182.75;5063786;28;20024;-42
2022/09/03 09:19:03;;;;;;;0.63;0.30;;;;;;;24.46;41.09;101184.88;5062247;28;20040;-43
2022/09/03 09:21:33;;;;;;;0.40;0.40;;;;;;;24.50;41.10;101178.84;5059901;28;20036;-42
2022/09/03 09:24:02;;;;;;;0.93;0.38;;;;;;;24.55;40.84;101179.13;5039384;28;20034;-42
2022/09/03 09:26:28;;;;;;;0.90;0.50;;;;;;;24.58;40.91;101175.97;5060066;28;20025;-40
2022/09/03 09:29:04;;;;;;;1.00;0.40;;;;;;;24.60;40.73;101173.91;5052555;28;20514;-42
2022/09/03 09:31:29;;;;;;;2.22;0.50;;;;;;;24.60;40.80;101186.66;5050500;28;20057;-42
2022/09/03 09:34:02;;;;;;;1.33;0.50;;;;;;;24.58;40.74;101172.41;5063229;28;20083;-43
2022/09/03 09:36:27;;;;;;;0.70;0.40;;;;;;;24.56;40.59;101163.63;5045960;28;20028;-41
2022/09/03 09:38:52;;;;;;;0.88;0.47;;;;;;;24.54;40.52;101166.53;5050850;28;20065;-43
2022/09/03 09:41:20;;;;;;;0.93;0.38;;;;;;;24.53;40.70;101167.59;5063948;28;20036;-42
2022/09/03 09:43:49;;;;;;;0.40;0.40;;;;;;;24.53;40.66;101169.47;5047900;28;20041;-42
2022/09/03 09:46:20;;;;;;;0.57;0.40;;;;;;;24.55;40.74;101170.97;5063732;28;20116;-42
2022/09/03 09:48:54;;;;;;;0.40;0.30;;;;;;;24.55;40.56;101162.81;5062873;28;20032;-42
2022/09/03 09:51:22;;;;;;;0.70;0.50;;;;;;;24.62;40.66;101165.53;5062261;28;20021;-43
2022/09/03 09:53:58;;;;;;;1.17;0.50;;;;;;;24.62;40.90;101165.53;5063880;28;20048;-43
2022/09/03 09:56:24;;;;;;;0.40;0.40;;;;;;;24.71;40.62;101174.38;5063667;28;20287;-42
2022/09/03 09:59:00;;;;;;;0.47;0.30;;;;;;;24.75;40.60;101168.34;5027316;28;1058882;-42
2022/09/03 10:01:29;;;;;;;1.30;0.40;;;;;;;24.79;40.40;101166.06;5051506;28;20068;-44
2022/09/03 10:03:59;;;;;;;0.90;0.55;;;;;;;24.83;40.38;101160.00;5063857;28;20562;-41
2022/09/03 10:09:16;;;;;;;0.50;0.30;;;;;;;24.87;40.23;101164.00;5062975;28;20032;-43
2022/09/03 10:11:50;;;;;;;0.50;0.40;;;;;;;24.90;40.25;101160.06;5057636;28;20022;-42
2022/09/03 10:14:21;;;;;;;0.60;0.40;;;;;;;24.87;39.96;101155.84;5057147;28;20020;-43
2022/09/03 10:16:51;;;;;;;1.25;0.40;;;;;;;24.93;40.02;101152.34;5063624;28;20025;-41
2022/09/03 10:19:18;;;;;;;0.32;0.30;;;;;;;24.93;39.96;101148.75;5062300;28;20055;-45
2022/09/03 10:21:53;;;;;;;0.75;0.52;;;;;;;24.95;39.78;101152.13;5062917;28;20043;-42
2022/09/03 10:24:57;;;;;;;0.85;0.43;;;;;;;24.96;39.93;101147.50;5061740;28;20082;-42
2022/09/03 10:27:23;;;;;;;1.17;0.60;;;;;;;24.94;39.84;101153.16;5060940;28;20066;-43
2022/09/03 10:29:49;;;;;;;0.45;0.30;;;;;;;24.93;39.73;101146.91;5062379;28;20025;-44
2022/09/03 10:32:41;;;;;;;0.32;0.30;;;;;;;24.94;39.87;101145.84;5056436;28;20033;-43
2022/09/03 10:35:20;;;;;;;0.65;0.40;;;;;;;24.94;39.64;101142.28;5060793;28;20017;-42
2022/09/03 10:38:07;;;;;;;0.47;0.30;;;;;;;24.94;39.80;101148.56;5051578;28;20422;-41
2022/09/03 10:40:32;;;;;;;0.60;0.40;;;;;;;24.94;39.78;101140.41;5055320;28;20048;-42
2022/09/03 10:43:17;;;;;;;0.70;0.40;;;;;;;24.96;39.85;101142.91;5063806;28;20037;-43
2022/09/03 10:46:00;;;;;;;0.35;0.32;;;;;;;24.96;39.85;101142.06;5060972;28;20098;-40
2022/09/03 10:48:51;;;;;;;0.43;0.38;;;;;;;24.94;39.97;101139.56;5062173;28;20101;-41
2022/09/03 10:51:24;;;;;;;0.38;0.28;;;;;;;24.96;39.95;101137.47;5047817;28;20099;-41
2022/09/03 10:54:17;;;;;;;0.30;0.20;;;;;;;24.91;40.04;101129.09;5063947;28;20024;-41
2022/09/03 10:56:51;;;;;;;0.75;0.40;;;;;;;24.98;39.94;101131.81;5053266;28;20033;-41
2022/09/03 10:59:46;;;;;;;1.85;0.47;;;;;;;24.98;40.06;101129.09;5059654;28;20623;-41
2022/09/03 11:02:40;;;;;;;1.05;0.28;;;;;;;24.99;39.86;101122.63;5060361;28;20029;-44
2022/09/03 11:05:15;;;;;;;0.50;0.30;;;;;;;24.98;39.98;101127.25;5060079;28;20021;-47
2022/09/03 11:08:12;;;;;;;0.30;0.30;;;;;;;24.98;40.12;101132.69;5061887;28;20025;-42
2022/09/03 11:10:45;;;;;;;0.63;0.40;;;;;;;24.99;40.04;101130.78;5042358;28;20142;-40
2022/09/03 11:13:21;;;;;;;0.30;0.30;;;;;;;24.99;40.39;101126.19;5060354;28;20017;-42
2022/09/03 11:16:18;;;;;;;0.60;0.40;;;;;;;25.01;40.35;101123.25;5062902;28;20032;-41
2022/09/03 11:18:48;;;;;;;0.32;0.30;;;;;;;25.01;40.24;101121.38;5073144;28;20037;-44
2022/09/03 11:21:17;;;;;;;0.93;0.40;;;;;;;25.02;40.24;101127.66;5062687;28;20043;-43
2022/09/03 11:23:43;;;;;;;;;;;;;;;24.99;40.55;101122.63;5061875;28;20053;-44
2022/09/03 11:26:11;;;;;;;0.40;0.38;;;;;;;24.96;40.40;101117.59;5078632;28;19923;-42
2022/09/03 11:28:57;;;;;;;0.40;0.20;;;;;;;25.02;40.53;101122.19;5066012;28;20036;-42
2022/09/03 11:31:56;;;;;;;0.55;0.40;;;;;;;25.02;40.60;101124.91;5062071;28;20124;-43
2022/09/03 11:34:43;;;;;;;0.50;0.40;;;;;;;25.02;40.64;101120.34;5062360;28;20025;-43
2022/09/03 11:37:27;;;;;;;0.52;0.30;;;;;;;25.04;40.63;101111.97;5063067;28;20076;-42
2022/09/03 11:40:04;;;;;;;0.50;0.38;;;;;;;25.04;40.76;101112.81;5043730;28;20021;-41
2022/09/03 11:42:35;;;;;;;0.30;0.30;;;;;;;25.07;40.94;101111.56;5062328;28;20632;-42
2022/09/03 11:45:16;;;;;;;0.60;0.30;;;;;;;25.14;40.98;101107.00;5062489;28;20025;-42
2022/09/03 11:47:42;;;;;;;0.30;0.22;;;;;;;25.19;41.19;101099.09;5059877;28;20029;-41
2022/09/03 11:50:23;;;;;;;0.55;0.40;;;;;;;25.27;41.10;101106.19;5061788;28;20033;-43